Time;durP1;ratioP1;P1;durP2;ratioP2;P2;SDS_P1;SDS_P2;PMS_P1;PMS_P2;Temp;Humidity;BMP_temperature;BMP_pressure;BME280_temperature;BME280_humidity;BME280_pressure;Samples;Min_cycle;Max_cycle;Signal;HPM_P1;HPM_P2
2021/03/14 00:00:39;;;;;;;1.53;1.30;;;2.60;99.90;;;;;;4973554;28;20442;-56
2021/03/14 00:03:09;;;;;;;1.73;1.20;;;2.60;99.90;;;;;;4988538;28;20433;-56
2021/03/14 00:05:38;;;;;;;3.70;1.60;;;2.60;99.90;;;;;;4986931;28;20960;-56
2021/03/14 00:08:08;;;;;;;1.50;1.40;;;2.60;99.90;;;;;;4987313;28;20553;-55
2021/03/14 00:10:34;;;;;;;2.70;1.33;;;2.60;99.90;;;;;;4985453;28;20438;-56
2021/03/14 00:13:01;;;;;;;3.33;1.30;;;2.60;99.90;;;;;;4992193;28;20441;-57
2021/03/14 00:15:27;;;;;;;2.20;1.33;;;2.70;99.90;;;;;;4990246;28;20438;-56
2021/03/14 00:17:53;;;;;;;1.97;1.53;;;2.60;99.90;;;;;;4987062;28;20470;-57
2021/03/14 00:20:19;;;;;;;3.17;1.77;;;2.70;99.90;;;;;;4988342;28;20455;-56
2021/03/14 00:22:46;;;;;;;5.37;1.60;;;2.70;99.90;;;;;;4994529;28;20267;-56
2021/03/14 00:25:12;;;;;;;2.17;1.33;;;2.70;99.90;;;;;;4971486;28;20478;-56
2021/03/14 00:27:38;;;;;;;2.90;1.20;;;2.70;99.90;;;;;;4991757;28;20458;-55
2021/03/14 00:30:06;;;;;;;2.40;1.33;;;2.70;99.90;;;;;;4987756;28;20442;-55
2021/03/14 00:32:33;;;;;;;1.87;1.33;;;2.70;99.90;;;;;;4992058;28;20432;-55
2021/03/14 00:34:59;;;;;;;1.77;1.30;;;2.70;99.90;;;;;;4991738;28;20463;-59
2021/03/14 00:37:24;;;;;;;1.50;1.40;;;2.70;99.90;;;;;;4992928;28;20595;-58
2021/03/14 00:39:50;;;;;;;2.37;1.50;;;2.70;99.90;;;;;;4990144;28;20445;-54
2021/03/14 00:42:16;;;;;;;1.00;1.00;;;2.70;99.90;;;;;;4991238;28;20209;-55
2021/03/14 00:44:42;;;;;;;5.80;1.37;;;2.70;99.90;;;;;;4991484;28;20209;-59
2021/03/14 00:47:10;;;;;;;2.60;1.10;;;2.70;99.90;;;;;;4969957;28;20219;-55
2021/03/14 00:49:36;;;;;;;1.00;1.00;;;2.70;99.90;;;;;;4987629;28;20188;-55
2021/03/14 00:52:02;;;;;;;1.00;1.00;;;2.70;99.90;;;;;;4992965;28;20424;-56
2021/03/14 00:54:27;;;;;;;1.23;1.10;;;2.70;99.90;;;;;;4991883;28;20568;-59
2021/03/14 00:56:54;;;;;;;1.70;1.10;;;2.70;99.90;;;;;;5007371;28;20218;-59
2021/03/14 00:59:19;;;;;;;1.03;0.97;;;2.70;99.90;;;;;;4998175;28;20183;-57
2021/03/14 01:01:45;;;;;;;0.90;0.90;;;2.70;99.90;;;;;;4994978;28;20492;-57
2021/03/14 01:04:10;;;;;;;1.23;1.13;;;2.70;99.90;;;;;;4988467;28;20295;-56
2021/03/14 01:06:36;;;;;;;0.90;0.90;;;2.70;99.90;;;;;;4994351;28;20194;-56
2021/03/14 01:09:03;;;;;;;0.80;0.80;;;2.60;99.90;;;;;;4990350;28;20276;-56
2021/03/14 01:11:29;;;;;;;2.93;0.90;;;2.60;99.90;;;;;;4988255;28;20436;-56
2021/03/14 01:13:54;;;;;;;0.80;0.80;;;2.60;99.90;;;;;;4984573;28;20457;-56
2021/03/14 01:16:20;;;;;;;0.90;0.90;;;2.60;99.90;;;;;;4988609;28;20301;-55
2021/03/14 01:18:46;;;;;;;1.30;1.10;;;2.60;99.90;;;;;;4988492;28;20201;-57
2021/03/14 01:21:11;;;;;;;1.43;0.90;;;2.50;99.90;;;;;;4988073;28;20192;-57
2021/03/14 01:23:37;;;;;;;3.70;1.17;;;2.60;99.90;;;;;;4989166;28;20213;-57
2021/03/14 01:26:03;;;;;;;1.00;0.90;;;2.60;99.90;;;;;;4985393;28;20175;-56
2021/03/14 01:28:28;;;;;;;0.97;0.87;;;2.60;99.90;;;;;;4985829;28;20208;-55
2021/03/14 01:30:54;;;;;;;0.80;0.80;;;2.50;99.90;;;;;;4990561;28;20184;-57
2021/03/14 01:33:20;;;;;;;1.70;1.00;;;2.60;99.90;;;;;;4990584;28;20628;-58
2021/03/14 01:35:45;;;;;;;0.90;0.90;;;2.50;99.90;;;;;;4987963;28;20184;-58
2021/03/14 01:38:11;;;;;;;1.73;0.87;;;2.60;99.90;;;;;;4977687;28;20226;-56
2021/03/14 01:40:37;;;;;;;0.73;0.73;;;2.60;99.90;;;;;;4980257;28;20253;-56
2021/03/14 01:43:03;;;;;;;0.90;0.90;;;2.60;99.90;;;;;;4991631;28;20508;-57
2021/03/14 01:45:28;;;;;;;0.90;0.90;;;2.60;99.90;;;;;;4990317;28;20215;-59
2021/03/14 01:47:56;;;;;;;0.80;0.80;;;2.60;99.90;;;;;;4988613;28;20520;-58
2021/03/14 01:50:24;;;;;;;1.00;1.00;;;2.60;99.90;;;;;;4991736;28;20192;-57
2021/03/14 01:52:51;;;;;;;2.80;1.27;;;2.60;99.90;;;;;;4996062;28;20486;-56
2021/03/14 01:55:18;;;;;;;0.83;0.83;;;2.60;99.90;;;;;;4992931;28;20446;-56
2021/03/14 01:57:45;;;;;;;0.87;0.87;;;2.60;99.90;;;;;;4988937;28;20540;-57
2021/03/14 02:00:14;;;;;;;0.80;0.80;;;2.60;99.90;;;;;;4995785;28;21000;-58
2021/03/14 02:02:41;;;;;;;0.90;0.90;;;2.50;99.90;;;;;;4989807;28;20982;-57
2021/03/14 02:05:09;;;;;;;0.73;0.73;;;2.50;99.90;;;;;;4989756;28;20455;-56
2021/03/14 02:07:36;;;;;;;0.70;0.70;;;2.50;99.90;;;;;;4984650;28;20457;-57
2021/03/14 02:10:04;;;;;;;0.80;0.80;;;2.50;99.90;;;;;;4988572;28;20936;-58
2021/03/14 02:12:36;;;;;;;0.80;0.80;;;2.50;99.90;;;;;;4995678;28;20424;-56
2021/03/14 02:15:03;;;;;;;1.13;1.00;;;2.50;99.90;;;;;;4977175;28;21020;-59
2021/03/14 02:17:35;;;;;;;0.90;0.90;;;2.50;99.90;;;;;;4974360;28;20474;-56
2021/03/14 02:20:12;;;;;;;1.00;1.00;;;2.50;99.90;;;;;;4988308;28;20436;-56
2021/03/14 02:22:43;;;;;;;0.90;0.90;;;2.50;99.90;;;;;;4987157;28;20434;-56
2021/03/14 02:25:38;;;;;;;0.80;0.80;;;2.50;99.90;;;;;;4982868;28;20462;-58
2021/03/14 02:28:06;;;;;;;0.90;0.90;;;2.50;99.90;;;;;;4982064;28;20455;-56
2021/03/14 02:30:33;;;;;;;1.00;1.00;;;2.50;99.90;;;;;;4976477;28;21273;-56
2021/03/14 02:32:59;;;;;;;0.83;0.83;;;2.60;99.90;;;;;;4979664;28;20473;-56
2021/03/14 02:35:26;;;;;;;0.90;0.90;;;2.50;99.90;;;;;;4977176;28;20466;-56
2021/03/14 02:37:53;;;;;;;0.90;0.90;;;2.60;99.90;;;;;;4991311;28;20934;-57
2021/03/14 02:40:21;;;;;;;2.03;1.03;;;2.50;99.90;;;;;;4984501;28;20442;-57
2021/03/14 02:42:48;;;;;;;1.00;1.00;;;2.50;99.90;;;;;;4994518;28;20946;-56
2021/03/14 02:45:14;;;;;;;1.43;0.90;;;2.60;99.90;;;;;;4985439;28;20961;-58
2021/03/14 02:47:40;;;;;;;0.90;0.90;;;2.60;99.90;;;;;;4986912;28;20537;-56
2021/03/14 02:50:09;;;;;;;0.90;0.90;;;2.50;99.90;;;;;;4986453;28;20422;-58
2021/03/14 02:52:36;;;;;;;0.90;0.90;;;2.50;99.90;;;;;;4977933;28;20427;-55
2021/03/14 02:55:03;;;;;;;0.90;0.90;;;2.50;99.90;;;;;;4987546;28;20445;-55
2021/03/14 02:57:30;;;;;;;0.90;0.90;;;2.50;99.90;;;;;;4985919;28;20541;-55
2021/03/14 02:59:57;;;;;;;0.80;0.80;;;2.40;99.90;;;;;;4989450;28;20476;-56
2021/03/14 03:02:24;;;;;;;0.87;0.87;;;2.40;99.90;;;;;;4987023;28;20433;-56
2021/03/14 03:04:50;;;;;;;1.37;1.10;;;2.50;99.90;;;;;;4978953;28;20459;-56
2021/03/14 03:07:20;;;;;;;4.03;1.00;;;2.40;99.90;;;;;;4986278;28;20861;-58
2021/03/14 03:09:50;;;;;;;0.93;0.93;;;2.40;99.90;;;;;;4962691;28;20446;-56
2021/03/14 03:12:17;;;;;;;0.97;0.93;;;2.50;99.90;;;;;;4987652;28;20430;-56
2021/03/14 03:14:44;;;;;;;1.00;1.00;;;2.40;99.90;;;;;;4974252;28;20920;-54
2021/03/14 03:17:10;;;;;;;0.83;0.83;;;2.40;99.90;;;;;;4968632;28;20487;-56
2021/03/14 03:19:37;;;;;;;0.80;0.80;;;2.40;99.90;;;;;;4985255;28;20431;-56
2021/03/14 03:22:04;;;;;;;0.93;0.93;;;2.40;99.90;;;;;;4987859;28;20791;-56
2021/03/14 03:24:30;;;;;;;1.00;1.00;;;2.40;99.90;;;;;;4987714;28;20568;-55
2021/03/14 03:26:56;;;;;;;1.10;1.00;;;2.50;99.90;;;;;;4977910;28;20462;-56
2021/03/14 03:29:22;;;;;;;0.80;0.80;;;2.50;99.90;;;;;;4987836;28;20938;-55
2021/03/14 03:31:47;;;;;;;2.00;0.93;;;2.40;99.90;;;;;;4982206;28;20515;-56
2021/03/14 03:34:14;;;;;;;1.27;0.93;;;2.40;99.90;;;;;;4978234;28;20457;-55
2021/03/14 03:36:41;;;;;;;1.10;0.90;;;2.40;99.90;;;;;;4979702;28;20237;-58
2021/03/14 03:39:09;;;;;;;0.80;0.80;;;2.40;99.90;;;;;;4989143;28;20446;-57
2021/03/14 03:42:02;;;;;;;0.90;0.90;;;2.40;99.90;;;;;;4984023;28;20794;-55
2021/03/14 03:44:28;;;;;;;1.83;0.80;;;2.40;99.90;;;;;;5011021;28;20465;-58
2021/03/14 03:46:59;;;;;;;2.00;0.87;;;2.40;99.90;;;;;;5003610;28;20447;-54
2021/03/14 03:49:30;;;;;;;1.00;0.97;;;2.40;99.90;;;;;;4991911;28;20552;-56
2021/03/14 03:51:58;;;;;;;0.90;0.90;;;2.40;99.90;;;;;;4987483;28;20426;-54
2021/03/14 03:54:25;;;;;;;1.00;1.00;;;2.40;99.90;;;;;;4985185;28;20545;-58
2021/03/14 03:56:54;;;;;;;1.00;1.00;;;2.30;99.90;;;;;;4988297;28;20454;-55
2021/03/14 03:59:21;;;;;;;0.90;0.90;;;2.30;99.90;;;;;;4991662;28;20442;-55
2021/03/14 04:01:48;;;;;;;1.00;1.00;;;2.30;99.90;;;;;;4992058;28;20438;-65
2021/03/14 04:04:14;;;;;;;1.00;1.00;;;2.30;99.90;;;;;;4989296;28;20562;-55
2021/03/14 04:06:42;;;;;;;0.90;0.90;;;2.30;99.90;;;;;;4991015;28;20450;-56
2021/03/14 04:09:09;;;;;;;0.97;0.97;;;2.30;99.90;;;;;;4978530;28;20433;-56
2021/03/14 04:11:39;;;;;;;1.00;1.00;;;2.30;99.90;;;;;;4983669;28;20458;-55
2021/03/14 04:14:07;;;;;;;0.80;0.80;;;2.30;99.90;;;;;;4970634;28;20438;-58
2021/03/14 04:16:35;;;;;;;0.90;0.90;;;2.30;99.90;;;;;;4975784;28;20463;-58
2021/03/14 04:19:03;;;;;;;0.90;0.90;;;2.30;99.90;;;;;;4985268;28;20439;-56
2021/03/14 04:21:30;;;;;;;0.90;0.90;;;2.30;99.90;;;;;;4969896;28;20432;-55
2021/03/14 04:23:57;;;;;;;2.30;1.20;;;2.30;99.90;;;;;;4984186;28;20430;-57
2021/03/14 04:26:23;;;;;;;1.70;1.30;;;2.30;99.90;;;;;;4988346;28;20547;-57
2021/03/14 04:28:52;;;;;;;1.00;1.00;;;2.30;99.90;;;;;;4984876;28;21016;-56
2021/03/14 04:31:19;;;;;;;1.20;1.10;;;2.30;99.90;;;;;;4984514;28;21042;-57
2021/03/14 04:33:46;;;;;;;1.20;1.10;;;2.30;99.90;;;;;;4985040;28;20978;-55
2021/03/14 04:36:13;;;;;;;1.07;0.97;;;2.30;99.90;;;;;;4992386;28;20424;-57
2021/03/14 04:38:40;;;;;;;1.20;1.20;;;2.30;99.90;;;;;;4994144;28;21044;-56
2021/03/14 04:41:07;;;;;;;1.30;1.20;;;2.30;99.90;;;;;;4996163;28;20439;-58
2021/03/14 04:43:33;;;;;;;1.00;1.00;;;2.30;99.90;;;;;;4972892;28;20532;-56
2021/03/14 04:46:00;;;;;;;4.33;1.00;;;2.30;99.90;;;;;;4984446;28;20462;-56
2021/03/14 04:48:26;;;;;;;1.10;0.83;;;2.30;99.90;;;;;;4988230;28;21078;-55
2021/03/14 04:50:53;;;;;;;2.03;0.90;;;2.20;99.90;;;;;;4981508;28;20458;-56
2021/03/14 04:53:20;;;;;;;1.03;1.00;;;2.20;99.90;;;;;;4968612;28;20430;-56
2021/03/14 04:55:47;;;;;;;0.90;0.90;;;2.20;99.90;;;;;;4972226;28;20431;-57
2021/03/14 04:58:17;;;;;;;3.40;1.30;;;2.30;99.90;;;;;;4997809;28;20452;-56
2021/03/14 05:00:43;;;;;;;0.90;0.90;;;2.20;99.90;;;;;;4998327;28;22323;-58
2021/03/14 05:03:17;;;;;;;0.83;0.83;;;2.10;99.90;;;;;;4999915;28;20431;-58
2021/03/14 05:05:45;;;;;;;1.00;1.00;;;2.10;99.90;;;;;;5000996;28;20474;-57
2021/03/14 05:08:13;;;;;;;1.10;1.10;;;2.00;99.90;;;;;;4971939;28;20480;-55
2021/03/14 05:10:39;;;;;;;2.00;1.13;;;2.00;99.90;;;;;;4984421;28;20435;-58
2021/03/14 05:13:06;;;;;;;5.17;1.27;;;1.90;99.90;;;;;;4983277;28;20442;-56
2021/03/14 05:15:32;;;;;;;0.97;0.97;;;1.90;99.90;;;;;;4983384;28;21086;-56
2021/03/14 05:17:59;;;;;;;1.77;1.20;;;1.90;99.90;;;;;;4973327;28;20458;-56
2021/03/14 05:20:27;;;;;;;1.33;1.20;;;1.90;99.90;;;;;;4983785;28;20434;-59
2021/03/14 05:22:55;;;;;;;1.33;1.23;;;1.90;99.90;;;;;;4982715;28;20861;-59
2021/03/14 05:25:21;;;;;;;0.93;0.93;;;1.90;99.90;;;;;;4983595;28;20969;-57
2021/03/14 05:27:49;;;;;;;1.10;1.00;;;1.90;99.90;;;;;;4968461;28;20545;-57
2021/03/14 05:30:21;;;;;;;2.63;1.23;;;1.80;99.90;;;;;;4984742;28;20432;-57
2021/03/14 05:32:48;;;;;;;1.43;1.00;;;1.70;99.90;;;;;;5008325;28;20449;-58
2021/03/14 05:35:14;;;;;;;1.63;1.23;;;1.70;99.90;;;;;;4999395;28;20441;-56
2021/03/14 05:37:40;;;;;;;1.87;1.20;;;1.60;99.90;;;;;;4984429;28;20549;-58
2021/03/14 05:40:08;;;;;;;2.70;1.17;;;1.60;99.90;;;;;;4963466;28;20513;-56
2021/03/14 05:42:34;;;;;;;1.33;1.10;;;1.50;99.90;;;;;;4960368;28;20950;-57
2021/03/14 05:45:01;;;;;;;4.30;1.10;;;1.50;99.90;;;;;;4982789;28;20466;-58
2021/03/14 05:47:27;;;;;;;1.60;1.20;;;1.60;99.90;;;;;;4985240;28;20449;-56
2021/03/14 05:49:53;;;;;;;1.43;1.37;;;1.60;99.90;;;;;;4982812;28;21104;-60
2021/03/14 05:52:20;;;;;;;1.30;1.20;;;1.60;99.90;;;;;;4984999;28;20439;-57
2021/03/14 05:54:47;;;;;;;1.20;1.10;;;1.60;99.90;;;;;;4991049;28;20183;-56
2021/03/14 05:57:16;;;;;;;2.50;1.20;;;1.60;99.90;;;;;;4987088;28;20469;-56
2021/03/14 05:59:45;;;;;;;1.10;1.10;;;1.60;99.90;;;;;;4984602;28;20544;-57
2021/03/14 06:02:12;;;;;;;2.40;1.30;;;1.60;99.90;;;;;;4985245;28;20430;-55
2021/03/14 06:04:39;;;;;;;1.00;1.00;;;1.70;99.90;;;;;;4986242;28;20653;-57
2021/03/14 06:07:05;;;;;;;1.53;1.40;;;1.70;99.90;;;;;;4984496;28;21625;-57
2021/03/14 06:09:31;;;;;;;1.73;1.60;;;1.70;99.90;;;;;;4986364;28;20431;-56
2021/03/14 06:11:57;;;;;;;4.97;1.60;;;1.80;99.90;;;;;;4983445;28;20199;-55
2021/03/14 06:14:22;;;;;;;3.67;1.40;;;1.80;99.90;;;;;;4982428;28;20509;-58
2021/03/14 06:16:48;;;;;;;2.80;1.50;;;1.80;99.90;;;;;;4982966;28;20242;-56
2021/03/14 06:19:14;;;;;;;2.33;1.30;;;1.80;99.90;;;;;;4981746;28;20179;-60
2021/03/14 06:21:39;;;;;;;1.90;1.80;;;1.80;99.90;;;;;;4984060;28;20214;-56
2021/03/14 06:24:10;;;;;;;4.10;1.70;;;1.80;99.90;;;;;;4980760;28;20216;-56
2021/03/14 06:26:45;;;;;;;4.40;1.30;;;1.90;99.90;;;;;;4982575;28;20195;-55
2021/03/14 06:29:17;;;;;;;1.00;1.00;;;1.90;99.90;;;;;;4983212;28;21281;-57
2021/03/14 06:31:57;;;;;;;1.10;1.10;;;1.90;99.90;;;;;;4979519;28;20434;-57
2021/03/14 06:34:28;;;;;;;6.80;1.40;;;1.90;99.90;;;;;;4982091;28;20430;-57
2021/03/14 06:36:56;;;;;;;1.10;1.10;;;1.90;99.90;;;;;;4984744;28;20588;-57
2021/03/14 06:39:24;;;;;;;1.33;1.10;;;1.90;99.90;;;;;;4982604;28;20444;-56
2021/03/14 06:41:50;;;;;;;2.10;1.53;;;1.90;99.90;;;;;;4968741;28;20434;-57
2021/03/14 06:44:28;;;;;;;1.30;1.20;;;1.90;99.90;;;;;;4981277;28;20482;-59
2021/03/14 06:46:55;;;;;;;1.30;1.20;;;1.90;99.90;;;;;;4965077;28;20886;-55
2021/03/14 06:49:23;;;;;;;1.60;1.50;;;1.90;99.90;;;;;;4982607;28;20794;-56
2021/03/14 06:51:51;;;;;;;1.40;1.30;;;1.90;99.90;;;;;;4985739;28;20510;-56
2021/03/14 06:54:37;;;;;;;1.73;1.60;;;1.90;99.90;;;;;;4968976;28;20440;-59
2021/03/14 06:57:15;;;;;;;1.53;1.43;;;1.90;99.90;;;;;;4982906;28;20451;-57
2021/03/14 06:59:52;;;;;;;1.63;1.40;;;2.00;99.90;;;;;;5008066;23;20414;-57
2021/03/14 07:02:27;;;;;;;2.10;1.60;;;2.00;99.90;;;;;;5006741;28;20433;-57
2021/03/14 07:04:55;;;;;;;1.30;1.30;;;2.10;99.90;;;;;;5010802;28;20455;-58
2021/03/14 07:07:42;;;;;;;5.03;1.40;;;2.20;99.90;;;;;;5007354;28;21020;-57
2021/03/14 07:10:13;;;;;;;3.03;1.30;;;2.30;99.90;;;;;;4977175;28;20486;-57
2021/03/14 07:12:42;;;;;;;1.50;1.40;;;2.30;99.90;;;;;;4986670;28;20434;-59
2021/03/14 07:15:14;;;;;;;2.30;1.40;;;2.40;99.90;;;;;;5008585;28;20435;-58
2021/03/14 07:17:42;;;;;;;2.33;1.13;;;2.40;99.90;;;;;;5004123;28;20522;-57
2021/03/14 07:20:12;;;;;;;1.10;1.10;;;2.30;99.90;;;;;;5003088;28;20541;-58
2021/03/14 07:22:39;;;;;;;4.30;1.80;;;2.40;99.90;;;;;;5002861;28;21028;-58
2021/03/14 07:25:07;;;;;;;3.80;1.90;;;2.30;99.90;;;;;;5010746;28;20500;-57
2021/03/14 07:27:34;;;;;;;2.73;1.40;;;2.40;99.90;;;;;;5009358;28;20484;-59
2021/03/14 07:30:01;;;;;;;2.60;1.60;;;2.40;99.90;;;;;;4986965;28;20553;-60
2021/03/14 07:32:28;;;;;;;4.33;1.77;;;2.40;99.90;;;;;;4998474;28;20455;-58
2021/03/14 07:34:54;;;;;;;1.67;1.50;;;2.40;99.90;;;;;;4987312;28;20523;-57
2021/03/14 07:37:21;;;;;;;3.07;1.40;;;2.50;99.90;;;;;;5002598;28;20540;-57
2021/03/14 07:39:48;;;;;;;1.57;1.40;;;2.50;99.90;;;;;;5000576;28;20473;-58
2021/03/14 07:42:18;;;;;;;1.87;1.77;;;2.40;99.90;;;;;;4999652;28;21104;-58
2021/03/14 07:44:45;;;;;;;1.93;1.40;;;2.40;99.90;;;;;;5014287;28;20473;-57
2021/03/14 07:47:14;;;;;;;2.60;1.53;;;2.50;99.90;;;;;;5013870;28;20427;-61
2021/03/14 07:49:49;;;;;;;2.27;1.30;;;2.60;99.70;;;;;;5007751;28;20445;-54
2021/03/14 07:52:21;;;;;;;1.83;1.03;;;2.70;99.80;;;;;;5017331;28;20431;-57
2021/03/14 07:54:56;;;;;;;4.30;1.40;;;2.80;97.00;;;;;;5010390;28;20565;-59
2021/03/14 07:57:24;;;;;;;1.90;1.23;;;2.90;96.80;;;;;;5012282;28;20777;-60
2021/03/14 07:59:50;;;;;;;4.60;1.30;;;3.00;97.60;;;;;;5004939;28;20470;-61
2021/03/14 08:02:18;;;;;;;1.50;1.20;;;3.00;97.60;;;;;;4994175;28;20436;-58
2021/03/14 08:04:55;;;;;;;4.60;2.10;;;3.10;97.50;;;;;;4993474;28;20574;-60
2021/03/14 08:07:33;;;;;;;1.80;1.50;;;3.20;97.40;;;;;;4994420;28;20433;-59
2021/03/14 08:10:03;;;;;;;3.70;1.60;;;3.20;97.10;;;;;;4991620;28;20456;-59
2021/03/14 08:12:36;;;;;;;1.57;1.47;;;3.30;96.50;;;;;;4995470;28;20431;-59
2021/03/14 08:15:23;;;;;;;1.83;1.73;;;3.30;96.30;;;;;;4993855;28;20530;-61
2021/03/14 08:17:52;;;;;;;1.30;1.10;;;3.30;97.10;;;;;;4991530;28;20516;-59
2021/03/14 08:20:44;;;;;;;2.83;1.13;;;3.40;97.00;;;;;;4971339;28;21141;-58
2021/03/14 08:23:15;;;;;;;4.20;1.20;;;3.40;97.20;;;;;;4995144;28;20438;-59
2021/03/14 08:25:43;;;;;;;1.30;1.20;;;3.50;97.10;;;;;;4993569;28;21081;-60
2021/03/14 08:28:29;;;;;;;2.47;1.60;;;3.40;95.80;;;;;;4998852;28;20484;-59
2021/03/14 08:31:13;;;;;;;5.53;1.30;;;3.50;96.90;;;;;;4993911;28;20935;-59
2021/03/14 08:33:46;;;;;;;1.40;1.30;;;3.50;96.70;;;;;;4996948;28;20467;-57
2021/03/14 08:36:14;;;;;;;2.97;1.27;;;3.50;94.70;;;;;;5002199;28;20437;-56
2021/03/14 08:38:52;;;;;;;2.30;1.20;;;3.50;95.50;;;;;;5001084;28;20431;-58
2021/03/14 08:41:37;;;;;;;3.60;1.50;;;3.50;95.80;;;;;;5000307;28;20867;-58
2021/03/14 08:44:13;;;;;;;1.57;1.30;;;3.60;94.00;;;;;;5000314;28;20481;-59
2021/03/14 08:46:51;;;;;;;2.40;1.50;;;3.60;95.80;;;;;;4998320;28;20427;-57
2021/03/14 08:49:18;;;;;;;1.43;1.33;;;3.60;95.30;;;;;;5000044;28;20434;-59
2021/03/14 08:51:45;;;;;;;2.10;1.30;;;3.60;92.40;;;;;;4999813;28;20418;-59
2021/03/14 08:54:11;;;;;;;1.40;1.30;;;3.60;94.20;;;;;;4998977;28;20513;-58
2021/03/14 08:56:37;;;;;;;1.20;1.20;;;3.60;93.10;;;;;;4999893;28;20419;-58
2021/03/14 08:59:06;;;;;;;4.90;1.90;;;3.60;93.80;;;;;;4999950;28;20947;-58
2021/03/14 09:01:33;;;;;;;3.60;1.53;;;3.60;94.90;;;;;;4999107;28;20465;-61
2021/03/14 09:04:16;;;;;;;1.33;1.20;;;3.60;93.40;;;;;;5000301;28;20427;-57
2021/03/14 09:06:42;;;;;;;2.70;1.40;;;3.50;93.20;;;;;;4999594;28;21383;-58
2021/03/14 09:09:20;;;;;;;11.40;2.73;;;3.40;94.60;;;;;;4998958;28;20439;-58
2021/03/14 09:11:51;;;;;;;1.70;1.60;;;3.40;95.20;;;;;;4993830;28;20436;-58
2021/03/14 09:14:28;;;;;;;1.67;1.40;;;3.40;95.00;;;;;;4996871;28;20441;-58
2021/03/14 09:16:58;;;;;;;4.73;2.03;;;3.30;95.20;;;;;;5000933;28;20939;-58
2021/03/14 09:19:25;;;;;;;2.50;1.50;;;3.40;95.90;;;;;;5006415;28;20435;-61
2021/03/14 09:21:53;;;;;;;6.10;1.60;;;3.50;95.70;;;;;;5004402;28;20790;-57
2021/03/14 09:24:32;;;;;;;1.27;1.20;;;3.60;95.20;;;;;;5001607;28;20522;-57
2021/03/14 09:27:03;;;;;;;2.37;1.50;;;3.60;92.40;;;;;;5007729;28;20423;-59
2021/03/14 09:29:39;;;;;;;6.00;1.37;;;3.70;93.30;;;;;;5004166;28;20912;-58
2021/03/14 09:32:30;;;;;;;1.40;1.30;;;3.60;91.90;;;;;;4985452;28;20428;-59
2021/03/14 09:35:09;;;;;;;3.57;1.37;;;3.60;81.30;;;;;;5016604;28;21031;-61
2021/03/14 09:37:35;;;;;;;3.73;1.37;;;3.50;88.50;;;;;;5016765;28;20424;-57
2021/03/14 09:40:23;;;;;;;2.67;1.70;;;3.50;88.70;;;;;;5013193;28;20578;-59
2021/03/14 09:42:52;;;;;;;3.73;1.70;;;3.60;89.00;;;;;;5012104;28;20516;-58
2021/03/14 09:45:20;;;;;;;4.43;1.63;;;3.60;89.70;;;;;;5003269;28;20458;-58
2021/03/14 09:48:07;;;;;;;4.43;2.20;;;3.60;86.50;;;;;;5000004;28;20526;-58
2021/03/14 09:50:46;;;;;;;5.50;2.40;;;3.60;88.10;;;;;;5005578;28;20450;-58
2021/03/14 09:53:12;;;;;;;5.83;1.90;;;3.70;90.30;;;;;;4982025;28;20435;-59
2021/03/14 09:55:41;;;;;;;3.07;1.43;;;3.70;90.20;;;;;;5001818;28;20427;-58
2021/03/14 09:58:13;;;;;;;4.30;2.40;;;3.70;89.80;;;;;;4999542;28;20523;-57
2021/03/14 10:00:40;;;;;;;10.47;2.40;;;3.70;90.80;;;;;;4986787;28;20531;-58
2021/03/14 10:03:09;;;;;;;3.40;1.40;;;3.80;91.90;;;;;;4992908;28;20438;-60
2021/03/14 10:05:46;;;;;;;1.50;1.40;;;3.90;92.20;;;;;;4993427;28;20467;-62
2021/03/14 10:08:19;;;;;;;6.27;1.80;;;4.10;90.70;;;;;;5006392;28;20421;-58
2021/03/14 10:10:47;;;;;;;6.73;2.50;;;4.30;90.70;;;;;;5003983;28;20449;-58
2021/03/14 10:13:13;;;;;;;1.80;1.50;;;4.50;90.30;;;;;;5004848;28;20454;-59
2021/03/14 10:15:40;;;;;;;7.40;2.17;;;4.70;90.50;;;;;;4977930;28;20428;-55
2021/03/14 10:18:07;;;;;;;5.60;2.10;;;4.80;86.00;;;;;;5002451;28;20439;-58
2021/03/14 10:20:34;;;;;;;6.00;2.13;;;4.70;83.40;;;;;;5008238;28;20568;-59
2021/03/14 10:23:06;;;;;;;13.23;1.97;;;4.90;87.00;;;;;;5000839;28;20438;-59
2021/03/14 10:25:37;;;;;;;5.00;2.23;;;5.00;82.40;;;;;;4997741;28;20478;-58
2021/03/14 10:28:10;;;;;;;2.60;1.63;;;5.10;84.10;;;;;;5003323;28;20434;-60
2021/03/14 10:30:37;;;;;;;3.50;1.50;;;5.30;83.30;;;;;;4999705;28;20467;-58
2021/03/14 10:33:04;;;;;;;11.23;1.80;;;5.50;80.50;;;;;;4999441;28;22078;-60
2021/03/14 10:35:31;;;;;;;1.33;1.23;;;5.70;83.10;;;;;;4992439;28;21010;-57
2021/03/14 10:37:57;;;;;;;3.30;1.40;;;5.90;80.40;;;;;;4996980;28;20439;-57
2021/03/14 10:40:25;;;;;;;1.60;1.50;;;6.20;85.80;;;;;;4983689;28;20490;-60
2021/03/14 10:42:52;;;;;;;2.40;1.50;;;6.30;70.00;;;;;;4999673;28;20191;-60
2021/03/14 10:45:19;;;;;;;4.73;1.50;;;6.20;70.50;;;;;;4997321;28;20495;-62
2021/03/14 10:47:57;;;;;;;1.67;1.50;;;6.00;70.80;;;;;;4990537;28;20525;-60
2021/03/14 10:50:27;;;;;;;3.13;1.43;;;5.90;76.80;;;;;;4972764;28;20444;-62
2021/03/14 10:53:15;;;;;;;2.77;1.40;;;6.00;68.60;;;;;;4993690;28;20422;-60
2021/03/14 10:55:43;;;;;;;2.50;1.77;;;6.00;72.00;;;;;;4989470;28;20961;-62
2021/03/14 10:58:16;;;;;;;2.00;1.20;;;6.00;70.70;;;;;;4977493;28;21154;-60
2021/03/14 11:00:46;;;;;;;2.33;1.40;;;5.90;68.00;;;;;;4989716;28;20463;-59
2021/03/14 11:03:29;;;;;;;1.20;1.10;;;5.80;67.90;;;;;;4990354;28;20435;-60
2021/03/14 11:06:19;;;;;;;4.87;1.33;;;5.70;73.00;;;;;;4998312;28;20451;-58
2021/03/14 11:08:49;;;;;;;1.97;1.73;;;5.70;73.50;;;;;;4994024;28;20437;-60
2021/03/14 11:11:14;;;;;;;1.83;1.10;;;5.80;79.40;;;;;;4993238;28;20448;-58
2021/03/14 11:13:40;;;;;;;2.13;1.20;;;5.90;77.50;;;;;;4991158;28;20435;-61
2021/03/14 11:16:08;;;;;;;3.77;1.20;;;5.90;69.90;;;;;;4969402;28;20193;-61
2021/03/14 11:18:34;;;;;;;1.90;1.40;;;6.00;72.60;;;;;;4988601;28;20180;-62
2021/03/14 11:21:03;;;;;;;2.40;1.33;;;6.10;74.10;;;;;;4987576;28;20474;-60
2021/03/14 11:23:28;;;;;;;1.20;1.17;;;6.30;72.00;;;;;;4989012;28;20173;-59
2021/03/14 11:25:54;;;;;;;2.30;1.23;;;6.40;69.30;;;;;;4992257;28;20538;-59
2021/03/14 11:28:20;;;;;;;2.30;1.30;;;6.40;65.70;;;;;;4996468;28;20181;-59
2021/03/14 11:30:46;;;;;;;1.33;1.30;;;6.30;65.90;;;;;;4991825;28;20287;-62
2021/03/14 11:33:12;;;;;;;1.70;1.40;;;6.50;65.00;;;;;;4989176;28;20177;-61
2021/03/14 11:35:37;;;;;;;3.67;1.87;;;6.50;65.00;;;;;;5001800;28;20521;-59
2021/03/14 11:38:04;;;;;;;1.03;1.03;;;6.50;62.50;;;;;;5004652;28;20910;-58
2021/03/14 11:40:30;;;;;;;1.93;1.37;;;6.70;60.70;;;;;;5008926;28;20210;-61
2021/03/14 11:42:56;;;;;;;1.10;1.00;;;6.80;61.40;;;;;;5003427;28;20530;-59
2021/03/14 11:45:22;;;;;;;1.73;1.40;;;7.00;59.80;;;;;;5005483;28;20859;-59
2021/03/14 11:47:48;;;;;;;1.30;1.20;;;7.30;62.40;;;;;;5001472;28;20675;-60
2021/03/14 11:50:14;;;;;;;2.00;1.17;;;7.50;62.10;;;;;;4992679;28;20447;-58
2021/03/14 11:52:42;;;;;;;1.50;1.40;;;7.70;59.80;;;;;;5001521;28;20533;-57
2021/03/14 11:55:08;;;;;;;1.03;1.03;;;7.60;57.90;;;;;;4986479;28;20546;-57
2021/03/14 11:57:34;;;;;;;1.30;1.00;;;7.40;56.60;;;;;;4997859;28;20435;-59
2021/03/14 12:00:02;;;;;;;1.80;1.03;;;7.30;57.90;;;;;;4988894;28;20550;-59
2021/03/14 12:02:28;;;;;;;3.13;1.30;;;7.10;58.10;;;;;;4991688;28;20461;-60
2021/03/14 12:04:53;;;;;;;1.27;1.17;;;6.80;56.60;;;;;;4979214;28;20475;-61
2021/03/14 12:07:19;;;;;;;1.20;1.10;;;6.60;59.10;;;;;;4995722;28;20185;-61
2021/03/14 12:09:45;;;;;;;6.37;1.60;;;6.50;62.50;;;;;;4997512;28;20204;-62
2021/03/14 12:12:11;;;;;;;1.17;1.03;;;6.30;61.80;;;;;;5003813;28;20271;-61
2021/03/14 12:14:37;;;;;;;1.70;1.10;;;6.20;64.80;;;;;;4996640;28;20590;-62
2021/03/14 12:17:02;;;;;;;1.80;1.20;;;6.00;65.80;;;;;;4990673;28;20487;-59
2021/03/14 12:19:28;;;;;;;1.00;1.00;;;5.80;69.00;;;;;;4995216;28;20263;-60
2021/03/14 12:21:54;;;;;;;3.90;1.50;;;5.70;75.50;;;;;;5001808;28;20518;-60
2021/03/14 12:24:19;;;;;;;1.00;1.00;;;5.60;76.60;;;;;;5008236;28;20594;-60
2021/03/14 12:26:46;;;;;;;1.23;1.13;;;5.40;79.00;;;;;;5000713;28;20235;-60
2021/03/14 12:29:12;;;;;;;3.67;1.90;;;5.30;82.40;;;;;;4999818;28;20443;-58
2021/03/14 12:31:38;;;;;;;1.97;1.20;;;5.20;86.60;;;;;;4997810;28;21022;-60
2021/03/14 12:34:03;;;;;;;4.07;1.30;;;5.20;88.40;;;;;;5000544;28;20735;-57
2021/03/14 12:36:29;;;;;;;3.07;1.57;;;5.00;90.30;;;;;;4984187;28;20184;-60
2021/03/14 12:38:55;;;;;;;3.93;1.60;;;4.90;91.40;;;;;;5000403;28;20188;-61
2021/03/14 12:41:21;;;;;;;2.57;1.60;;;4.80;92.70;;;;;;4983880;28;20299;-58
2021/03/14 12:43:47;;;;;;;3.23;1.13;;;4.80;93.80;;;;;;4999837;28;20181;-60
2021/03/14 12:46:13;;;;;;;4.40;2.03;;;4.80;94.80;;;;;;5003935;28;20485;-61
2021/03/14 12:48:38;;;;;;;2.87;1.37;;;4.80;94.60;;;;;;5002326;28;20807;-57
2021/03/14 12:51:04;;;;;;;1.80;1.33;;;4.70;94.70;;;;;;4981844;28;20239;-60
2021/03/14 12:53:34;;;;;;;1.70;1.30;;;4.70;93.90;;;;;;4995196;28;20682;-62
2021/03/14 12:56:00;;;;;;;3.40;1.50;;;4.60;93.60;;;;;;4996517;28;20534;-61
2021/03/14 12:58:26;;;;;;;5.50;1.40;;;4.50;93.30;;;;;;4996312;28;20458;-61
2021/03/14 13:00:52;;;;;;;1.70;1.30;;;4.40;93.00;;;;;;5011846;22;20232;-57
2021/03/14 13:03:18;;;;;;;1.40;1.30;;;4.30;94.20;;;;;;4976956;28;20447;-59
2021/03/14 13:05:44;;;;;;;1.80;1.20;;;4.20;94.40;;;;;;4975347;28;20980;-57